Time;durP1;ratioP1;P1;durP2;ratioP2;P2;SDS_P1;SDS_P2;PMS_P1;PMS_P2;Temp;Humidity;BMP_temperature;BMP_pressure;BME280_temperature;BME280_humidity;BME280_pressure;Samples;Min_cycle;Max_cycle;Signal;HPM_P1;HPM_P2
2021/06/01 00:00:06;;;;;;;0.53;0.30;;;14.30;99.90;;;;;;4992127;28;20238;-86
2021/06/01 00:02:32;;;;;;;0.30;0.30;;;14.30;99.90;;;;;;4994571;28;20548;-86
2021/06/01 00:04:57;;;;;;;0.20;0.20;;;14.30;99.90;;;;;;4993628;28;20231;-86
2021/06/01 00:07:23;;;;;;;0.23;0.13;;;14.40;99.90;;;;;;4982374;28;20193;-87
2021/06/01 00:09:48;;;;;;;0.30;0.30;;;14.30;99.90;;;;;;4993444;28;20195;-86
2021/06/01 00:12:14;;;;;;;0.10;0.10;;;14.40;99.90;;;;;;4994423;28;20240;-87
2021/06/01 00:14:40;;;;;;;0.20;0.20;;;14.50;99.90;;;;;;4993210;28;20242;-86
2021/06/01 00:17:05;;;;;;;0.40;0.40;;;14.50;99.90;;;;;;5010010;28;20182;-87
2021/06/01 00:19:31;;;;;;;0.10;0.10;;;14.50;99.90;;;;;;4993190;28;20187;-86
2021/06/01 00:21:57;;;;;;;0.10;0.10;;;14.50;99.90;;;;;;4992278;28;20248;-86
2021/06/01 00:24:22;;;;;;;0.13;0.13;;;14.40;99.90;;;;;;4994444;28;20190;-86
2021/06/01 00:26:48;;;;;;;0.20;0.20;;;14.50;99.90;;;;;;4992864;28;20233;-87
2021/06/01 00:29:13;;;;;;;0.10;0.10;;;14.40;99.90;;;;;;4993687;28;20268;-87
2021/06/01 00:31:39;;;;;;;0.10;0.10;;;14.40;99.90;;;;;;4992903;28;20202;-86
2021/06/01 00:34:05;;;;;;;0.27;0.27;;;14.40;99.90;;;;;;4992854;28;20558;-87
2021/06/01 00:36:31;;;;;;;0.20;0.20;;;14.30;99.90;;;;;;4993063;28;20620;-86
2021/06/01 00:38:57;;;;;;;0.50;0.40;;;14.30;99.90;;;;;;4994363;28;20241;-86
2021/06/01 00:41:23;;;;;;;0.57;0.57;;;14.20;99.90;;;;;;4993961;28;20205;-86
2021/06/01 00:43:48;;;;;;;0.83;0.40;;;14.20;99.90;;;;;;4992658;28;20187;-86
2021/06/01 00:46:14;;;;;;;0.17;0.17;;;14.20;99.90;;;;;;4992908;28;20226;-87
2021/06/01 00:48:40;;;;;;;0.10;0.10;;;14.20;99.90;;;;;;4992646;28;20275;-87
2021/06/01 00:51:06;;;;;;;0.43;0.43;;;14.10;99.90;;;;;;4992574;28;20279;-86
2021/06/01 00:53:32;;;;;;;0.27;0.27;;;14.10;99.90;;;;;;4994171;28;20186;-86
2021/06/01 00:55:59;;;;;;;0.10;0.10;;;14.00;99.90;;;;;;4992518;28;20218;-87
2021/06/01 00:58:25;;;;;;;0.60;0.30;;;14.00;99.90;;;;;;4992807;28;20238;-86
2021/06/01 01:03:23;;;;;;;0.10;0.10;;;14.00;99.90;;;;;;4994128;28;20193;-86
2021/06/01 01:05:50;;;;;;;0.67;0.23;;;13.90;99.90;;;;;;4993548;28;20605;-86
2021/06/01 01:08:33;;;;;;;0.10;0.10;;;14.00;99.90;;;;;;4993528;28;20273;-87
2021/06/01 01:11:04;;;;;;;0.47;0.10;;;13.90;99.90;;;;;;4993558;28;20222;-87
2021/06/01 01:13:37;;;;;;;0.23;0.23;;;14.00;99.90;;;;;;4992542;28;20186;-87
2021/06/01 01:16:05;;;;;;;0.10;0.10;;;14.00;99.90;;;;;;4989996;28;20631;-86
2021/06/01 01:18:33;;;;;;;0.10;0.10;;;14.00;99.90;;;;;;4992142;28;20229;-86
2021/06/01 01:21:22;;;;;;;0.10;0.10;;;13.90;99.90;;;;;;4993149;28;20178;-87
2021/06/01 01:23:57;;;;;;;0.20;0.10;;;14.00;99.90;;;;;;4990312;28;20197;-86
2021/06/01 01:26:55;;;;;;;0.10;0.10;;;14.00;99.90;;;;;;4992157;28;20264;-87
2021/06/01 01:29:37;;;;;;;0.10;0.10;;;14.00;99.90;;;;;;4991947;28;20186;-87
2021/06/01 01:32:05;;;;;;;0.23;0.23;;;14.00;99.90;;;;;;4991524;28;20183;-86
2021/06/01 01:34:33;;;;;;;0.33;0.33;;;14.00;99.90;;;;;;4989533;28;20244;-89
2021/06/01 01:37:00;;;;;;;0.20;0.20;;;14.00;99.90;;;;;;5008187;28;20194;-86
2021/06/01 01:39:29;;;;;;;0.13;0.13;;;13.90;99.90;;;;;;4992084;28;20185;-86
2021/06/01 01:41:55;;;;;;;0.10;0.10;;;13.90;99.90;;;;;;4992197;28;20179;-86
2021/06/01 01:44:25;;;;;;;0.10;0.10;;;14.00;99.90;;;;;;4991575;28;20180;-86
2021/06/01 01:49:22;;;;;;;0.30;0.30;;;13.90;99.90;;;;;;4993541;28;20183;-87
2021/06/01 01:51:53;;;;;;;0.23;0.23;;;13.90;99.90;;;;;;4992957;28;20177;-86
2021/06/01 01:54:23;;;;;;;0.20;0.20;;;13.80;99.90;;;;;;4991520;28;20196;-86
2021/06/01 01:56:54;;;;;;;0.10;0.10;;;13.80;99.90;;;;;;4992964;28;20180;-86
2021/06/01 01:59:21;;;;;;;0.20;0.20;;;13.80;99.90;;;;;;4991821;28;20227;-87
2021/06/01 02:01:49;;;;;;;0.20;0.20;;;13.80;99.90;;;;;;4992677;28;20521;-86
2021/06/01 02:04:20;;;;;;;0.27;0.27;;;13.80;99.90;;;;;;4991359;28;20209;-86
2021/06/01 02:06:46;;;;;;;0.20;0.20;;;13.70;99.90;;;;;;5007887;28;20206;-87
2021/06/01 02:09:13;;;;;;;0.30;0.30;;;13.60;99.90;;;;;;4991650;28;20277;-86
2021/06/01 02:11:39;;;;;;;0.10;0.10;;;13.60;99.90;;;;;;4991663;28;20178;-86
2021/06/01 02:14:05;;;;;;;0.13;0.13;;;13.60;99.90;;;;;;4991568;28;20564;-87
2021/06/01 02:16:42;;;;;;;0.13;0.13;;;13.60;99.90;;;;;;4991297;28;20242;-86
2021/06/01 02:19:10;;;;;;;0.30;0.30;;;13.60;99.90;;;;;;4991511;28;20185;-86
2021/06/01 02:24:27;;;;;;;0.20;0.20;;;13.60;99.90;;;;;;4993120;28;20194;-87
2021/06/01 02:27:05;;;;;;;0.10;0.10;;;13.60;99.90;;;;;;4992599;28;20182;-88
2021/06/01 02:29:42;;;;;;;0.10;0.10;;;13.70;99.90;;;;;;4992633;28;20186;-86
2021/06/01 02:32:09;;;;;;;0.20;0.20;;;13.70;99.90;;;;;;4992488;28;20203;-86
2021/06/01 02:34:40;;;;;;;0.20;0.20;;;13.80;99.90;;;;;;4991364;28;20308;-87
2021/06/01 02:37:07;;;;;;;0.10;0.10;;;13.70;99.90;;;;;;4991213;28;20189;-87
2021/06/01 02:39:34;;;;;;;0.80;0.37;;;13.70;99.90;;;;;;5015063;28;20186;-86
2021/06/01 02:42:01;;;;;;;0.20;0.20;;;13.60;99.90;;;;;;4991304;28;20189;-86
2021/06/01 02:44:27;;;;;;;0.10;0.10;;;13.60;99.90;;;;;;4991359;28;20199;-86
2021/06/01 02:46:53;;;;;;;1.13;0.30;;;13.60;99.90;;;;;;4990999;28;20199;-87
2021/06/01 02:49:20;;;;;;;0.10;0.10;;;13.60;99.90;;;;;;5007621;28;20190;-86
2021/06/01 02:51:45;;;;;;;0.20;0.20;;;13.60;99.90;;;;;;4974660;28;20194;-87
2021/06/01 02:54:12;;;;;;;0.10;0.10;;;13.60;99.90;;;;;;4995139;28;20186;-86
2021/06/01 02:56:38;;;;;;;0.43;0.30;;;13.60;99.90;;;;;;4996279;28;20181;-86
2021/06/01 02:59:20;;;;;;;0.20;0.20;;;13.60;99.90;;;;;;4995075;28;20692;-86
2021/06/01 03:01:50;;;;;;;0.17;0.17;;;13.60;99.90;;;;;;4995135;28;20220;-86
2021/06/01 03:04:16;;;;;;;0.20;0.20;;;13.50;99.90;;;;;;4996233;28;20187;-86
2021/06/01 03:06:43;;;;;;;0.20;0.20;;;13.50;99.90;;;;;;4990744;28;20201;-85
2021/06/01 03:09:09;;;;;;;1.43;0.60;;;13.40;99.90;;;;;;4990603;28;20180;-85
2021/06/01 03:11:37;;;;;;;0.37;0.37;;;13.30;99.90;;;;;;4995373;28;20194;-85
2021/06/01 03:14:04;;;;;;;9.27;0.43;;;13.10;99.90;;;;;;4995196;28;20320;-85
2021/06/01 03:16:30;;;;;;;0.30;0.30;;;12.90;99.90;;;;;;4994287;28;20213;-85
2021/06/01 03:18:56;;;;;;;0.40;0.40;;;12.70;99.90;;;;;;4997716;28;20263;-85
2021/06/01 03:21:21;;;;;;;0.20;0.20;;;12.50;99.90;;;;;;4994318;28;20201;-85
2021/06/01 03:23:47;;;;;;;0.33;0.33;;;12.50;99.90;;;;;;4995051;28;20248;-84
2021/06/01 03:26:14;;;;;;;0.60;0.60;;;12.40;99.90;;;;;;4995102;28;20290;-84
2021/06/01 03:28:39;;;;;;;0.17;0.17;;;12.40;99.90;;;;;;5010956;28;20245;-85
2021/06/01 03:31:06;;;;;;;0.10;0.10;;;12.30;99.90;;;;;;4995176;28;20721;-85
2021/06/01 03:33:33;;;;;;;0.27;0.27;;;12.30;99.90;;;;;;4996579;28;20192;-84
2021/06/01 03:35:58;;;;;;;0.20;0.20;;;12.30;99.90;;;;;;4995299;28;20212;-85
2021/06/01 03:38:24;;;;;;;0.10;0.10;;;12.40;99.90;;;;;;4995095;28;20188;-84
2021/06/01 03:40:50;;;;;;;1.23;1.23;;;12.80;99.90;;;;;;4996445;28;20185;-86
2021/06/01 03:43:16;;;;;;;0.83;0.53;;;13.60;99.90;;;;;;4995900;28;20661;-85
2021/06/01 03:45:42;;;;;;;2.47;0.30;;;14.40;99.90;;;;;;5004399;28;20215;-85
2021/06/01 03:48:07;;;;;;;1.10;0.23;;;15.10;99.90;;;;;;4996653;28;20272;-85
2021/06/01 03:50:34;;;;;;;0.20;0.20;;;16.20;99.90;;;;;;4994946;28;20203;-86
2021/06/01 03:53:00;;;;;;;0.30;0.20;;;17.00;99.90;;;;;;4996288;28;20661;-85
2021/06/01 03:55:26;;;;;;;0.20;0.20;;;17.90;99.90;;;;;;4996765;28;20710;-85
2021/06/01 03:57:51;;;;;;;0.10;0.10;;;18.10;99.90;;;;;;5013341;28;20183;-85
2021/06/01 04:00:22;;;;;;;0.43;0.40;;;18.50;99.90;;;;;;4996406;28;20648;-84
2021/06/01 04:02:48;;;;;;;0.87;0.67;;;18.50;99.90;;;;;;4994902;28;20319;-84
2021/06/01 04:05:14;;;;;;;0.17;0.17;;;18.30;99.90;;;;;;4994994;28;20246;-85
2021/06/01 04:07:40;;;;;;;2.33;0.33;;;18.20;99.90;;;;;;4996055;28;20334;-85
2021/06/01 04:10:06;;;;;;;0.80;0.80;;;18.20;99.90;;;;;;4996222;28;20268;-85
2021/06/01 04:12:32;;;;;;;0.10;0.10;;;18.20;99.90;;;;;;4993882;28;20269;-85
2021/06/01 04:14:58;;;;;;;1.60;0.70;;;18.00;99.90;;;;;;4996166;28;20250;-87
2021/06/01 04:17:23;;;;;;;0.30;0.30;;;18.00;99.90;;;;;;4997938;28;20185;-84
2021/06/01 04:19:49;;;;;;;0.50;0.40;;;17.40;99.90;;;;;;4994645;28;20187;-85
2021/06/01 04:22:15;;;;;;;0.40;0.40;;;16.60;99.90;;;;;;5022609;28;20195;-87
2021/06/01 04:24:40;;;;;;;0.20;0.20;;;16.00;99.90;;;;;;4994159;28;20258;-84
2021/06/01 04:27:06;;;;;;;0.27;0.27;;;15.60;99.90;;;;;;4996121;28;20202;-84
2021/06/01 04:29:32;;;;;;;0.30;0.30;;;15.30;99.90;;;;;;4996207;28;20191;-84
2021/06/01 04:31:57;;;;;;;0.37;0.37;;;15.50;99.90;;;;;;4994604;28;20714;-85
2021/06/01 04:34:23;;;;;;;0.30;0.30;;;15.40;99.90;;;;;;4989246;28;20180;-85
2021/06/01 04:36:49;;;;;;;0.23;0.23;;;15.00;99.90;;;;;;4994504;28;20195;-85
2021/06/01 04:39:14;;;;;;;0.40;0.40;;;14.70;99.90;;;;;;4994072;28;20571;-86
2021/06/01 04:41:40;;;;;;;0.27;0.27;;;14.60;99.90;;;;;;4995069;28;20188;-84
2021/06/01 04:44:06;;;;;;;0.30;0.30;;;14.60;99.90;;;;;;4991866;28;20209;-86
2021/06/01 04:46:33;;;;;;;0.30;0.30;;;14.60;99.90;;;;;;4991076;28;20559;-86
2021/06/01 04:48:59;;;;;;;0.40;0.40;;;14.50;99.90;;;;;;4988095;28;20190;-85
2021/06/01 04:51:25;;;;;;;0.20;0.20;;;14.50;99.90;;;;;;4995065;28;20686;-85
2021/06/01 04:53:55;;;;;;;0.17;0.17;;;14.50;99.90;;;;;;4997423;28;20187;-86
2021/06/01 04:56:28;;;;;;;0.30;0.30;;;14.50;99.90;;;;;;4993001;28;20224;-86
2021/06/01 04:58:56;;;;;;;0.30;0.30;;;14.50;99.90;;;;;;4994522;28;20183;-86
2021/06/01 05:01:23;;;;;;;0.20;0.20;;;14.60;99.90;;;;;;4993271;28;20187;-86
2021/06/01 05:03:49;;;;;;;0.17;0.17;;;14.60;99.90;;;;;;4994280;28;20187;-86
2021/06/01 05:06:16;;;;;;;0.40;0.40;;;14.70;99.90;;;;;;4994349;28;20230;-85
2021/06/01 05:08:43;;;;;;;0.10;0.10;;;14.80;99.90;;;;;;4993921;28;20655;-86
2021/06/01 05:11:08;;;;;;;0.73;0.30;;;15.00;99.90;;;;;;4992132;28;20611;-84
2021/06/01 05:13:34;;;;;;;0.20;0.20;;;15.20;99.90;;;;;;4993883;28;20202;-84
2021/06/01 05:16:00;;;;;;;0.37;0.37;;;15.20;99.90;;;;;;4992497;28;20244;-88
2021/06/01 05:18:25;;;;;;;1.23;0.87;;;15.30;99.90;;;;;;4990329;28;20184;-86
2021/06/01 05:20:54;;;;;;;0.93;0.30;;;15.10;99.90;;;;;;5007382;28;20547;-85
2021/06/01 05:23:20;;;;;;;0.50;0.50;;;15.30;99.90;;;;;;5008791;28;20646;-86
2021/06/01 05:25:45;;;;;;;0.30;0.30;;;15.20;99.90;;;;;;4989123;28;20214;-88
2021/06/01 05:28:12;;;;;;;0.37;0.37;;;15.40;99.90;;;;;;4993184;28;20202;-86
2021/06/01 05:30:49;;;;;;;0.60;0.40;;;15.40;99.90;;;;;;4992802;28;20221;-87
2021/06/01 05:33:24;;;;;;;0.30;0.30;;;15.60;99.90;;;;;;4991725;28;20194;-86
2021/06/01 05:35:53;;;;;;;0.20;0.20;;;15.70;99.90;;;;;;4987949;28;20310;-87
2021/06/01 05:38:26;;;;;;;0.57;0.57;;;15.60;99.90;;;;;;4974251;28;20566;-86
2021/06/01 05:40:54;;;;;;;0.17;0.17;;;15.70;99.90;;;;;;4984187;28;20185;-87
2021/06/01 05:43:19;;;;;;;0.40;0.40;;;15.70;99.90;;;;;;4991593;28;20192;-86
2021/06/01 05:45:45;;;;;;;0.30;0.27;;;15.80;99.90;;;;;;4989654;28;20266;-86
2021/06/01 05:48:12;;;;;;;0.30;0.30;;;15.90;99.90;;;;;;4992560;28;20219;-87
2021/06/01 05:50:39;;;;;;;0.47;0.47;;;16.10;99.90;;;;;;5000709;28;20192;-86
2021/06/01 05:53:06;;;;;;;0.47;0.47;;;16.40;99.90;;;;;;4991772;28;20229;-87
2021/06/01 05:55:32;;;;;;;0.40;0.40;;;16.40;99.90;;;;;;4991383;28;20223;-86
2021/06/01 05:57:58;;;;;;;0.20;0.20;;;16.50;99.90;;;;;;4990822;28;20188;-86
2021/06/01 06:00:24;;;;;;;0.87;0.30;;;16.50;99.90;;;;;;4992753;28;20194;-86
2021/06/01 06:02:50;;;;;;;1.10;0.50;;;16.60;99.90;;;;;;4990051;28;20629;-87
2021/06/01 06:05:17;;;;;;;0.27;0.27;;;16.70;99.90;;;;;;4989248;28;20682;-86
2021/06/01 06:07:43;;;;;;;1.10;0.30;;;16.60;99.90;;;;;;4991851;28;20199;-88
2021/06/01 06:10:09;;;;;;;0.43;0.27;;;16.60;99.90;;;;;;4979034;28;20187;-87
2021/06/01 06:12:35;;;;;;;0.40;0.40;;;16.80;99.90;;;;;;4982773;28;20687;-87
2021/06/01 06:15:03;;;;;;;0.50;0.20;;;16.80;99.90;;;;;;4990867;28;20199;-86
2021/06/01 06:17:34;;;;;;;0.20;0.20;;;16.90;99.90;;;;;;4989103;28;20216;-87
2021/06/01 06:20:01;;;;;;;0.50;0.50;;;17.00;99.90;;;;;;5005843;28;20183;-87
2021/06/01 06:22:27;;;;;;;0.50;0.50;;;17.20;99.90;;;;;;5000650;28;20180;-88
2021/06/01 06:24:53;;;;;;;0.57;0.53;;;17.50;99.90;;;;;;5002913;28;20227;-86
2021/06/01 06:27:18;;;;;;;0.57;0.30;;;17.70;99.90;;;;;;4978289;28;20291;-86
2021/06/01 06:29:44;;;;;;;0.90;0.60;;;17.80;99.90;;;;;;4994103;28;20195;-86
2021/06/01 06:32:10;;;;;;;2.87;0.40;;;17.40;99.90;;;;;;4993692;28;20203;-86
2021/06/01 06:34:35;;;;;;;0.20;0.20;;;17.50;99.90;;;;;;4993015;28;20298;-86
2021/06/01 06:37:01;;;;;;;0.30;0.30;;;17.50;99.90;;;;;;4995051;28;20525;-85
2021/06/01 06:39:27;;;;;;;2.93;0.60;;;17.70;99.90;;;;;;5011074;28;20207;-86
2021/06/01 06:41:52;;;;;;;0.63;0.63;;;17.80;99.90;;;;;;4993805;28;20188;-86
2021/06/01 06:44:19;;;;;;;0.33;0.13;;;17.80;99.90;;;;;;4990678;28;20648;-86
2021/06/01 06:46:52;;;;;;;0.50;0.50;;;18.10;99.90;;;;;;5010035;28;20187;-86
2021/06/01 06:49:20;;;;;;;0.67;0.63;;;17.80;99.90;;;;;;4995726;28;20176;-86
2021/06/01 06:51:46;;;;;;;0.50;0.50;;;18.00;99.90;;;;;;4990947;28;20203;-86
2021/06/01 06:54:12;;;;;;;0.30;0.30;;;18.30;99.90;;;;;;4990948;28;20211;-86
2021/06/01 06:56:37;;;;;;;1.17;1.13;;;18.40;99.90;;;;;;4995665;28;20732;-86
2021/06/01 06:59:03;;;;;;;0.47;0.47;;;18.50;99.90;;;;;;4992260;28;20221;-86
2021/06/01 07:01:28;;;;;;;0.23;0.23;;;18.40;99.90;;;;;;4993941;28;20255;-86
2021/06/01 07:03:55;;;;;;;0.47;0.47;;;18.50;99.90;;;;;;5008580;28;20226;-86
2021/06/01 07:06:22;;;;;;;0.20;0.20;;;18.40;99.90;;;;;;4991610;28;20676;-86
2021/06/01 07:08:49;;;;;;;0.53;0.43;;;18.30;99.90;;;;;;4984131;28;20224;-86
2021/06/01 07:11:15;;;;;;;0.43;0.43;;;18.60;99.90;;;;;;4989599;28;20202;-87
2021/06/01 07:13:42;;;;;;;0.50;0.50;;;18.80;99.90;;;;;;4993059;28;20194;-86
2021/06/01 07:16:09;;;;;;;0.37;0.37;;;19.10;99.90;;;;;;4991393;28;20590;-87
2021/06/01 07:18:38;;;;;;;0.80;0.57;;;19.00;99.90;;;;;;4986167;28;20631;-86
2021/06/01 07:21:05;;;;;;;0.30;0.27;;;19.40;99.90;;;;;;4982503;28;20187;-86
2021/06/01 07:23:31;;;;;;;0.20;0.20;;;19.60;99.90;;;;;;4981106;28;20181;-88
2021/06/01 07:25:57;;;;;;;0.57;0.43;;;19.10;99.90;;;;;;4989128;28;20722;-86
2021/06/01 07:28:22;;;;;;;0.77;0.40;;;19.20;99.90;;;;;;4993278;28;20275;-86
2021/06/01 07:30:48;;;;;;;0.30;0.30;;;19.50;99.90;;;;;;4993159;28;20234;-87
2021/06/01 07:33:14;;;;;;;0.43;0.43;;;19.70;99.90;;;;;;4993170;28;20246;-86
2021/06/01 07:35:40;;;;;;;0.53;0.20;;;19.60;99.90;;;;;;4992455;28;20298;-86
2021/06/01 07:38:06;;;;;;;0.30;0.30;;;19.90;99.90;;;;;;4995543;28;20248;-86
2021/06/01 07:40:31;;;;;;;0.53;0.43;;;20.20;99.90;;;;;;4989709;28;20182;-86
2021/06/01 07:42:59;;;;;;;0.47;0.47;;;20.20;99.90;;;;;;4990853;28;20184;-87
2021/06/01 07:45:26;;;;;;;2.63;0.90;;;20.30;99.90;;;;;;4988283;28;20286;-85
2021/06/01 07:47:51;;;;;;;0.30;0.30;;;20.50;99.90;;;;;;4994595;28;20183;-86
2021/06/01 07:50:17;;;;;;;0.47;0.47;;;20.50;99.90;;;;;;4990350;28;20210;-85
2021/06/01 07:52:43;;;;;;;1.00;0.47;;;20.50;99.90;;;;;;4996853;28;20176;-85
2021/06/01 07:55:09;;;;;;;0.63;0.63;;;20.50;99.90;;;;;;4995418;28;20825;-85
2021/06/01 07:57:34;;;;;;;0.57;0.40;;;20.30;99.90;;;;;;4996851;28;20195;-85
2021/06/01 08:00:00;;;;;;;1.10;0.50;;;20.10;99.90;;;;;;4995217;28;20188;-86
2021/06/01 08:02:25;;;;;;;0.47;0.47;;;20.40;99.90;;;;;;4994120;28;20651;-86
2021/06/01 08:04:54;;;;;;;0.40;0.40;;;20.40;99.90;;;;;;4996514;28;20570;-86
2021/06/01 08:07:20;;;;;;;1.60;1.40;;;20.40;99.90;;;;;;4995177;28;20195;-86
2021/06/01 08:09:46;;;;;;;0.60;0.60;;;20.40;99.90;;;;;;4994218;28;20635;-86
2021/06/01 08:12:11;;;;;;;0.30;0.30;;;20.40;99.90;;;;;;4989576;28;20202;-85
2021/06/01 08:14:37;;;;;;;0.30;0.30;;;20.80;99.90;;;;;;4996844;28;20260;-85
2021/06/01 08:17:04;;;;;;;0.50;0.50;;;20.60;99.90;;;;;;5010913;28;20180;-85
2021/06/01 08:19:32;;;;;;;0.93;0.53;;;20.90;99.90;;;;;;4994871;28;20200;-85
2021/06/01 08:22:04;;;;;;;1.47;0.63;;;20.70;99.90;;;;;;4996288;28;20182;-86
2021/06/01 08:24:30;;;;;;;0.50;0.50;;;20.80;99.90;;;;;;4993211;28;20726;-85
2021/06/01 08:26:56;;;;;;;0.40;0.40;;;20.20;99.90;;;;;;4995641;28;20184;-86
2021/06/01 08:29:21;;;;;;;0.30;0.30;;;20.50;99.90;;;;;;4996111;28;20184;-86
2021/06/01 08:31:47;;;;;;;0.60;0.60;;;21.10;99.90;;;;;;4993726;28;20180;-89
2021/06/01 08:34:13;;;;;;;0.70;0.70;;;20.90;99.90;;;;;;5008252;28;20176;-89
2021/06/01 08:36:38;;;;;;;0.33;0.33;;;20.70;99.90;;;;;;4993178;28;20291;-86
2021/06/01 08:39:06;;;;;;;0.47;0.47;;;20.90;99.90;;;;;;4993515;28;20190;-86
2021/06/01 08:41:33;;;;;;;0.63;0.63;;;20.70;99.90;;;;;;4994303;28;20649;-86
2021/06/01 08:44:00;;;;;;;0.30;0.30;;;20.70;99.90;;;;;;4992808;28;20257;-87
2021/06/01 08:46:27;;;;;;;0.40;0.40;;;21.00;99.90;;;;;;4995277;28;20204;-86
2021/06/01 08:48:54;;;;;;;0.83;0.60;;;21.40;99.90;;;;;;4994429;28;20298;-86
2021/06/01 08:51:21;;;;;;;0.60;0.53;;;21.00;99.90;;;;;;4993965;28;20198;-86
2021/06/01 08:53:48;;;;;;;1.17;0.67;;;20.90;99.90;;;;;;4993314;28;20187;-86
2021/06/01 08:56:15;;;;;;;0.33;0.33;;;21.20;99.90;;;;;;4993457;28;20212;-86
2021/06/01 08:58:42;;;;;;;0.33;0.33;;;21.40;99.90;;;;;;4987608;28;20183;-86
2021/06/01 09:01:09;;;;;;;1.07;0.70;;;21.60;99.90;;;;;;4993111;28;20184;-85
2021/06/01 09:03:36;;;;;;;0.53;0.53;;;21.60;99.90;;;;;;4993195;28;20192;-87
2021/06/01 09:08:52;;;;;;;0.67;0.63;;;21.40;99.90;;;;;;4992126;28;20191;-86
2021/06/01 09:22:44;;;;;;;0.60;0.60;;;21.50;99.90;;;;;;4989802;28;20252;-86
2021/06/01 09:25:39;;;;;;;0.83;0.83;;;21.90;99.90;;;;;;4991004;28;20246;-86
2021/06/01 09:27:58;;;;;;;1.07;1.00;;;21.90;99.90;;;;;;4978815;28;20195;-86
2021/06/01 09:30:45;;;;;;;0.60;0.60;;;21.90;99.90;;;;;;4992877;28;20211;-85
2021/06/01 09:33:15;;;;;;;0.90;0.90;;;21.80;99.90;;;;;;5001674;28;20215;-85
2021/06/01 09:35:52;;;;;;;0.50;0.50;;;21.80;99.90;;;;;;4994966;28;20211;-85
2021/06/01 09:38:23;;;;;;;0.40;0.40;;;21.40;99.90;;;;;;4989475;28;20683;-84
2021/06/01 09:41:02;;;;;;;0.83;0.67;;;21.80;99.90;;;;;;4991528;28;20582;-84
2021/06/01 09:43:27;;;;;;;0.80;0.73;;;21.90;99.90;;;;;;4992975;28;20183;-84
2021/06/01 09:45:53;;;;;;;0.97;0.50;;;21.80;99.90;;;;;;5003567;28;20218;-84
2021/06/01 09:48:18;;;;;;;0.67;0.40;;;22.40;99.90;;;;;;4993554;28;20190;-87
2021/06/01 09:53:22;;;;;;;0.50;0.50;;;22.30;99.90;;;;;;4992946;28;20679;-87
2021/06/01 09:55:48;;;;;;;1.13;0.60;;;22.70;99.90;;;;;;4989433;28;20281;-87
2021/06/01 09:58:24;;;;;;;0.80;0.80;;;22.70;99.90;;;;;;4990366;28;20183;-88
2021/06/01 10:00:50;;;;;;;0.43;0.43;;;22.30;99.90;;;;;;4988643;28;20211;-87
2021/06/01 10:03:26;;;;;;;0.50;0.50;;;22.60;99.90;;;;;;4989174;28;20297;-87
2021/06/01 10:05:55;;;;;;;0.50;0.50;;;22.60;99.90;;;;;;4982592;28;20211;-87
2021/06/01 10:08:26;;;;;;;1.33;0.70;;;22.70;99.90;;;;;;4990053;28;20195;-88
2021/06/01 10:10:53;;;;;;;0.80;0.80;;;22.90;99.90;;;;;;4987146;28;20176;-87
2021/06/01 10:13:20;;;;;;;0.60;0.60;;;22.70;99.90;;;;;;4997646;28;20250;-90
2021/06/01 10:15:45;;;;;;;2.90;0.40;;;23.00;99.90;;;;;;4991028;28;20215;-87
2021/06/01 10:18:14;;;;;;;0.60;0.60;;;23.20;99.90;;;;;;4990697;28;20213;-88
2021/06/01 10:20:42;;;;;;;0.57;0.57;;;23.40;99.90;;;;;;4992509;28;20179;-87
2021/06/01 10:23:09;;;;;;;0.60;0.50;;;23.60;99.90;;;;;;4985529;28;20183;-87
2021/06/01 10:25:35;;;;;;;0.53;0.53;;;23.20;99.90;;;;;;5001022;28;20684;-84
2021/06/01 10:28:04;;;;;;;0.40;0.40;;;23.40;99.90;;;;;;4992885;28;20199;-84
2021/06/01 10:30:32;;;;;;;0.53;0.53;;;23.30;99.90;;;;;;4991667;28;20176;-87
2021/06/01 10:33:06;;;;;;;0.40;0.40;;;23.50;99.90;;;;;;4989986;28;20600;-87
2021/06/01 10:35:36;;;;;;;2.10;0.70;;;23.50;99.90;;;;;;4991127;28;20264;-85
2021/06/01 10:52:30;;;;;;;0.53;0.53;;;23.80;99.90;;;;;;4991838;28;20331;-86
2021/06/01 10:55:07;;;;;;;0.80;0.43;;;24.00;99.90;;;;;;4990820;28;20712;-87
2021/06/01 10:57:53;;;;;;;0.83;0.33;;;23.90;99.90;;;;;;4992380;28;20566;-87
2021/06/01 11:03:11;;;;;;;0.50;0.50;;;24.30;99.90;;;;;;4991646;28;20234;-87
2021/06/01 11:06:00;;;;;;;1.00;0.57;;;23.80;99.90;;;;;;4991112;28;20299;-87
2021/06/01 11:08:34;;;;;;;0.53;0.53;;;23.50;99.90;;;;;;4980613;28;20742;-88
2021/06/01 11:11:22;;;;;;;0.40;0.40;;;22.90;99.90;;;;;;4990863;28;20184;-87
2021/06/01 11:13:51;;;;;;;0.40;0.40;;;23.30;99.90;;;;;;4990455;28;20184;-87
2021/06/01 11:16:17;;;;;;;0.60;0.60;;;23.40;99.90;;;;;;4993986;28;20251;-87
2021/06/01 11:18:51;;;;;;;0.83;0.73;;;23.50;99.90;;;;;;4993694;28;20199;-87
2021/06/01 11:21:26;;;;;;;1.07;0.80;;;23.60;99.90;;;;;;4992963;28;20200;-88
2021/06/01 11:35:31;;;;;;;0.57;0.57;;;23.40;99.90;;;;;;4993509;28;20302;-86
2021/06/01 11:43:32;;;;;;;0.47;0.47;;;24.30;99.90;;;;;;4996354;28;20188;-86
2021/06/01 11:46:07;;;;;;;2.00;0.70;;;24.70;99.90;;;;;;4995936;28;20208;-84
2021/06/01 11:51:26;;;;;;;0.60;0.60;;;24.50;99.90;;;;;;4990057;28;20183;-84
2021/06/01 11:53:51;;;;;;;0.50;0.50;;;23.50;99.90;;;;;;4986479;28;21488;-84
2021/06/01 11:57:36;;;;;;;0.60;0.60;;;23.90;99.90;;;;;;4992816;28;20683;-86
2021/06/01 12:02:53;;;;;;;0.60;0.60;;;23.90;99.90;;;;;;4986162;28;20195;-84
2021/06/01 12:19:05;;;;;;;0.40;0.40;;;24.50;99.90;;;;;;4989480;28;20198;-85
2021/06/01 12:21:50;;;;;;;0.53;0.53;;;24.90;99.90;;;;;;4994722;28;20230;-85
2021/06/01 12:24:23;;;;;;;1.03;0.93;;;24.30;99.90;;;;;;4994471;28;20712;-85
2021/06/01 12:32:17;;;;;;;0.40;0.40;;;24.40;99.90;;;;;;4995368;28;20198;-85
2021/06/01 12:45:50;;;;;;;1.07;0.57;;;25.40;99.90;;;;;;4992548;28;20771;-87
2021/06/01 13:40:01;;;;;;;1.10;1.00;;;25.30;99.90;;;;;;4992791;28;20183;-86
2021/06/01 13:48:27;;;;;;;0.40;0.40;;;25.80;99.90;;;;;;4991623;28;20238;-88
2021/06/01 13:51:05;;;;;;;0.40;0.40;;;25.90;99.90;;;;;;4999164;28;20184;-85
2021/06/01 13:56:09;;;;;;;0.93;0.70;;;25.10;99.90;;;;;;4992670;28;20208;-86
2021/06/01 13:59:31;;;;;;;0.83;0.40;;;25.10;99.90;;;;;;4981826;28;20187;-87
2021/06/01 14:10:33;;;;;;;0.57;0.40;;;25.40;99.90;;;;;;4993886;28;20275;-87
2021/06/01 14:19:24;;;;;;;0.40;0.40;;;26.20;99.90;;;;;;5038095;22;20318;-85
2021/06/01 14:21:11;;;;;;;0.80;0.80;;;25.30;99.90;;;;;;4998907;28;20673;-85
2021/06/01 15:10:18;;;;;;;0.40;0.40;;;24.70;99.90;;;;;;5012937;28;20206;-85
2021/06/01 15:31:57;;;;;;;0.43;0.33;;;26.40;99.90;;;;;;5014630;28;20306;-85
2021/06/01 15:48:42;;;;;;;0.47;0.47;;;26.40;99.90;;;;;;5019265;28;20185;-85
2021/06/01 15:51:43;;;;;;;0.80;0.63;;;26.40;99.90;;;;;;5014807;28;20206;-85
2021/06/01 17:06:03;;;;;;;0.30;0.30;;;26.00;99.90;;;;;;5014891;28;20213;-84
2021/06/01 17:11:16;;;;;;;0.67;0.60;;;26.00;99.90;;;;;;5008123;28;20194;-84
2021/06/01 17:13:45;;;;;;;0.27;0.27;;;25.70;99.90;;;;;;5012145;28;20187;-83
2021/06/01 17:16:22;;;;;;;0.53;0.50;;;26.00;99.90;;;;;;5015275;28;20210;-83
2021/06/01 17:22:28;;;;;;;0.22;0.22;;;26.50;99.90;;;;;;5020333;28;20182;-83
2021/06/01 17:35:24;;;;;;;0.40;0.40;;;26.40;99.90;;;;;;5012903;28;20249;-84
2021/06/01 17:37:50;;;;;;;0.47;0.47;;;26.40;99.90;;;;;;5015263;28;20183;-84
2021/06/01 17:40:20;;;;;;;0.97;0.83;;;26.20;99.90;;;;;;5010600;28;20557;-85
2021/06/01 17:42:50;;;;;;;0.35;0.30;;;26.10;99.90;;;;;;5012256;28;20234;-84
2021/06/01 17:45:20;;;;;;;0.60;0.60;;;26.00;99.90;;;;;;5011001;28;20213;-85
2021/06/01 17:47:55;;;;;;;0.60;0.60;;;25.90;99.90;;;;;;5013769;28;20190;-84
2021/06/01 17:50:22;;;;;;;0.40;0.40;;;26.00;99.90;;;;;;5013822;28;20297;-84
2021/06/01 17:52:53;;;;;;;0.27;0.27;;;25.90;99.90;;;;;;5016349;28;20194;-85
2021/06/01 17:55:21;;;;;;;0.80;0.80;;;26.00;99.90;;;;;;5006573;28;20633;-85
2021/06/01 17:57:47;;;;;;;1.23;1.07;;;25.80;99.90;;;;;;5002842;28;20747;-84
2021/06/01 18:00:14;;;;;;;0.40;0.40;;;26.00;99.90;;;;;;5011996;28;20182;-83
2021/06/01 18:02:39;;;;;;;0.40;0.40;;;25.80;99.90;;;;;;5012326;28;20652;-84
2021/06/01 18:05:08;;;;;;;0.50;0.37;;;25.70;99.90;;;;;;5030302;28;20217;-84
2021/06/01 18:07:58;;;;;;;0.50;0.50;;;25.40;99.90;;;;;;4999981;28;20222;-84
2021/06/01 18:40:47;;;;;;;0.23;0.23;;;23.10;99.90;;;;;;5008613;28;20265;-83
2021/06/01 19:29:51;;;;;;;3.17;0.60;;;20.90;99.90;;;;;;5007024;28;20199;-84
2021/06/01 19:51:59;;;;;;;0.40;0.40;;;20.30;99.90;;;;;;5015022;28;20190;-82
2021/06/01 19:54:30;;;;;;;0.40;0.40;;;20.10;99.90;;;;;;5014292;28;20203;-85
2021/06/01 19:56:56;;;;;;;0.60;0.50;;;20.10;99.90;;;;;;5007917;28;20278;-83
2021/06/01 19:59:24;;;;;;;0.53;0.53;;;20.00;99.90;;;;;;5012693;28;20279;-82
2021/06/01 20:01:49;;;;;;;1.10;0.63;;;19.90;99.90;;;;;;5009295;28;20601;-85
2021/06/01 20:04:15;;;;;;;0.57;0.57;;;19.80;99.90;;;;;;5011761;28;20218;-84
2021/06/01 20:06:41;;;;;;;0.43;0.43;;;19.80;99.90;;;;;;5015072;28;20195;-83
2021/06/01 20:09:07;;;;;;;0.40;0.40;;;19.80;99.90;;;;;;5013957;28;20249;-84